createdAt,value
2018-07-29T00:00:59.883Z,1001.6
2018-07-29T00:02:01.280Z,1001.6
2018-07-29T00:03:02.675Z,1001.6
2018-07-29T00:04:04.071Z,1001.6
2018-07-29T00:05:05.465Z,1001.6
2018-07-29T00:06:06.855Z,1001.6
2018-07-29T00:07:08.253Z,1001.6
2018-07-29T00:08:09.650Z,1001.6
2018-07-29T00:09:11.049Z,1001.6
2018-07-29T00:10:12.442Z,1001.6
2018-07-29T00:11:13.836Z,1001.6
2018-07-29T00:12:15.303Z,1001.6
2018-07-29T00:13:16.626Z,1001.6
2018-07-29T00:14:18.016Z,1001.7
2018-07-29T00:15:19.414Z,1001.6
2018-07-29T00:16:20.826Z,1001.6
2018-07-29T00:17:22.218Z,1001.6
2018-07-29T00:18:23.610Z,1001.6
2018-07-29T00:19:25.011Z,1001.6
2018-07-29T00:20:26.421Z,1001.6
2018-07-29T00:21:27.818Z,1001.5
2018-07-29T00:22:29.215Z,1001.6
2018-07-29T00:23:30.610Z,1001.6
2018-07-29T00:24:32.004Z,1001.5
2018-07-29T00:25:33.401Z,1001.5
2018-07-29T00:26:34.800Z,1001.5
2018-07-29T00:27:36.196Z,1001.5
2018-07-29T00:28:37.587Z,1001.5
2018-07-29T00:29:38.978Z,1001.5
2018-07-29T00:30:40.377Z,1001.5
2018-07-29T00:31:41.907Z,1001.5
2018-07-29T00:32:43.302Z,1001.5
2018-07-29T00:33:44.696Z,1001.5
2018-07-29T00:34:46.089Z,1001.6
2018-07-29T00:35:47.485Z,1001.7
2018-07-29T00:36:48.880Z,1001.6
2018-07-29T00:37:50.274Z,1001.7
2018-07-29T00:38:51.666Z,1001.7
2018-07-29T00:39:53.062Z,1001.7
2018-07-29T00:40:54.455Z,1001.6
2018-07-29T00:41:55.850Z,1001.7
2018-07-29T00:42:57.250Z,1001.7
2018-07-29T00:43:58.642Z,1001.7
2018-07-29T00:45:00.041Z,1001.7
2018-07-29T00:46:01.430Z,1001.7
2018-07-29T00:47:02.826Z,1001.7
2018-07-29T00:48:04.229Z,1001.7
2018-07-29T00:49:05.618Z,1001.7
2018-07-29T00:50:07.013Z,1001.7
2018-07-29T00:51:08.406Z,1001.7
2018-07-29T00:52:09.799Z,1001.7
2018-07-29T00:53:11.223Z,1001.7
2018-07-29T00:54:12.595Z,1001.7
2018-07-29T00:55:13.995Z,1001.7
2018-07-29T00:56:15.388Z,1001.7
2018-07-29T00:57:16.833Z,1001.7
2018-07-29T00:58:18.223Z,1001.7
2018-07-29T00:59:19.624Z,1001.6
2018-07-29T01:00:21.018Z,1001.7
2018-07-29T01:01:22.410Z,1001.6
2018-07-29T01:02:23.811Z,1001.5
2018-07-29T01:03:25.200Z,1001.5
2018-07-29T01:04:26.610Z,1001.5
2018-07-29T01:05:28.006Z,1001.5
2018-07-29T01:06:29.426Z,1001.5
2018-07-29T01:07:30.820Z,1001.5
2018-07-29T01:08:32.219Z,1001.5
2018-07-29T01:09:33.616Z,1001.5
2018-07-29T01:10:35.019Z,1001.4
2018-07-29T01:11:36.491Z,1001.4
2018-07-29T01:12:37.887Z,1001.4
2018-07-29T01:13:39.277Z,1001.4
2018-07-29T01:14:40.684Z,1001.4
2018-07-29T01:15:42.077Z,1001.4
2018-07-29T01:16:43.476Z,1001.4
2018-07-29T01:17:44.870Z,1001.4
2018-07-29T01:18:46.269Z,1001.5
2018-07-29T01:19:47.705Z,1001.5
2018-07-29T01:20:49.094Z,1001.5
2018-07-29T01:21:50.486Z,1001.5
2018-07-29T01:22:51.883Z,1001.5
2018-07-29T01:23:53.281Z,1001.5
2018-07-29T01:24:54.674Z,1001.5
2018-07-29T01:25:56.093Z,1001.6
2018-07-29T01:26:57.492Z,1001.6
2018-07-29T01:27:58.883Z,1001.6
2018-07-29T01:29:00.327Z,1001.6
2018-07-29T01:30:01.724Z,1001.6
2018-07-29T01:31:03.122Z,1001.6
2018-07-29T01:32:04.518Z,1001.6
2018-07-29T01:33:05.919Z,1001.6
2018-07-29T01:34:07.311Z,1001.6
2018-07-29T01:35:08.708Z,1001.6
2018-07-29T01:36:10.107Z,1001.6
2018-07-29T01:37:11.501Z,1001.6
2018-07-29T01:38:12.899Z,1001.6
2018-07-29T01:39:14.293Z,1001.6
2018-07-29T01:40:15.686Z,1001.6
2018-07-29T01:41:17.083Z,1001.5
2018-07-29T01:42:18.475Z,1001.6
2018-07-29T01:43:19.890Z,1001.5
2018-07-29T01:44:21.293Z,1001.5
2018-07-29T01:45:22.693Z,1001.5
2018-07-29T01:46:24.092Z,1001.6
2018-07-29T01:47:25.482Z,1001.5
2018-07-29T01:48:26.875Z,1001.6
2018-07-29T01:49:28.267Z,1001.6
2018-07-29T01:50:29.725Z,1001.5
2018-07-29T01:51:31.114Z,1001.5
2018-07-29T01:52:32.507Z,1001.5
2018-07-29T01:53:33.900Z,1001.5
2018-07-29T01:54:35.291Z,1001.4
2018-07-29T01:55:36.687Z,1001.4
2018-07-29T01:56:38.089Z,1001.5
2018-07-29T01:57:39.477Z,1001.4
2018-07-29T01:58:40.875Z,1001.4
2018-07-29T01:59:42.266Z,1001.4
2018-07-29T02:00:43.658Z,1001.4
2018-07-29T02:01:45.052Z,1001.4
2018-07-29T02:02:46.445Z,1001.4
2018-07-29T02:03:47.845Z,1001.4
2018-07-29T02:04:49.238Z,1001.4
2018-07-29T02:05:50.636Z,1001.4
2018-07-29T02:06:52.040Z,1001.4
2018-07-29T02:07:53.437Z,1001.3
2018-07-29T02:08:54.830Z,1001.4
2018-07-29T02:09:56.226Z,1001.3
2018-07-29T02:10:57.620Z,1001.4
2018-07-29T02:11:59.015Z,1001.3
2018-07-29T02:13:00.408Z,1001.3
2018-07-29T02:14:01.806Z,1001.3
2018-07-29T02:15:03.198Z,1001.3
2018-07-29T02:16:04.592Z,1001.3
2018-07-29T02:17:05.994Z,1001.3
2018-07-29T02:18:07.384Z,1001.3
2018-07-29T02:19:08.775Z,1001.2
2018-07-29T02:20:10.173Z,1001.2
2018-07-29T02:21:11.571Z,1001.2
2018-07-29T02:22:12.971Z,1001.2
2018-07-29T02:23:14.358Z,1001.2
2018-07-29T02:24:15.753Z,1001.2
2018-07-29T02:25:17.142Z,1001.2
2018-07-29T02:26:18.535Z,1001.2
2018-07-29T02:27:19.930Z,1001.2
2018-07-29T02:28:21.334Z,1001.2
2018-07-29T02:29:22.730Z,1001.2
2018-07-29T02:30:24.121Z,1001.2
2018-07-29T02:31:25.592Z,1001.2
2018-07-29T02:32:27.006Z,1001.2
2018-07-29T02:33:28.379Z,1001.2
2018-07-29T02:34:29.766Z,1001.3
2018-07-29T02:35:31.171Z,1001.2
2018-07-29T02:36:32.568Z,1001.2
2018-07-29T02:37:33.958Z,1001.2
2018-07-29T02:38:35.359Z,1001.2
2018-07-29T02:39:36.758Z,1001.2
2018-07-29T02:40:38.140Z,1001.3
2018-07-29T02:41:39.548Z,1001.2
2018-07-29T02:42:40.945Z,1001.2
2018-07-29T02:43:42.340Z,1001.2
2018-07-29T02:44:43.729Z,1001.2
2018-07-29T02:45:45.141Z,1001.2
2018-07-29T02:46:46.535Z,1001.2
2018-07-29T02:47:47.933Z,1001.2
2018-07-29T02:48:49.332Z,1001.2
2018-07-29T02:49:50.748Z,1001.2
2018-07-29T02:50:52.143Z,1001.2
2018-07-29T02:51:53.534Z,1001.2
2018-07-29T02:52:54.931Z,1001.2
2018-07-29T02:53:56.323Z,1001.2
2018-07-29T02:54:57.721Z,1001.2
2018-07-29T02:55:59.110Z,1001.3
2018-07-29T02:57:00.506Z,1001.3
2018-07-29T02:58:01.897Z,1001.2
2018-07-29T02:59:03.288Z,1001.2
2018-07-29T03:00:04.681Z,1001.3
2018-07-29T03:01:06.081Z,1001.2
2018-07-29T03:02:07.473Z,1001.2
2018-07-29T03:03:08.869Z,1001.1
2018-07-29T03:04:10.263Z,1001.1
2018-07-29T03:05:11.661Z,1001.1
2018-07-29T03:06:13.055Z,1001.0
2018-07-29T03:07:14.452Z,1001.0
2018-07-29T03:08:15.852Z,1000.9
2018-07-29T03:09:17.251Z,1000.9
2018-07-29T03:10:18.643Z,1000.9
2018-07-29T03:11:20.176Z,1000.9
2018-07-29T03:12:21.573Z,1000.9
2018-07-29T03:13:22.966Z,1000.9
2018-07-29T03:14:24.360Z,1000.9
2018-07-29T03:15:25.755Z,1000.9
2018-07-29T03:16:27.154Z,1000.8
2018-07-29T03:17:28.552Z,1000.9
2018-07-29T03:18:29.945Z,1000.9
2018-07-29T03:19:31.340Z,1000.9
2018-07-29T03:20:32.733Z,1000.9
2018-07-29T03:21:34.141Z,1000.9
2018-07-29T03:22:35.535Z,1000.9
2018-07-29T03:23:36.928Z,1000.9
2018-07-29T03:24:38.327Z,1000.9
2018-07-29T03:25:39.791Z,1000.8
2018-07-29T03:26:41.181Z,1000.8
2018-07-29T03:27:42.578Z,1000.8
2018-07-29T03:28:44.033Z,1000.7
2018-07-29T03:29:45.432Z,1000.7
2018-07-29T03:30:46.826Z,1000.7
2018-07-29T03:31:48.218Z,1000.6
2018-07-29T03:32:49.623Z,1000.6
2018-07-29T03:33:51.009Z,1000.6
2018-07-29T03:34:52.400Z,1000.6
2018-07-29T03:35:53.798Z,1000.6
2018-07-29T03:36:55.196Z,1000.7
2018-07-29T03:37:56.597Z,1000.7
2018-07-29T03:38:57.989Z,1000.7
2018-07-29T03:39:59.388Z,1000.8
2018-07-29T03:41:00.779Z,1000.7
2018-07-29T03:42:02.177Z,1000.7
2018-07-29T03:43:03.570Z,1000.7
2018-07-29T03:44:04.966Z,1000.7
2018-07-29T03:45:06.361Z,1000.7
2018-07-29T03:46:07.772Z,1000.7
2018-07-29T03:47:09.170Z,1000.6
2018-07-29T03:48:10.592Z,1000.6
2018-07-29T03:49:11.989Z,1000.6
2018-07-29T03:50:13.386Z,1000.6
2018-07-29T03:51:14.859Z,1000.6
2018-07-29T03:52:16.257Z,1000.7
2018-07-29T03:53:17.649Z,1000.6
2018-07-29T03:54:19.047Z,1000.7
2018-07-29T03:55:20.451Z,1000.7
2018-07-29T03:56:21.851Z,1000.7
2018-07-29T03:57:23.247Z,1000.7
2018-07-29T03:58:24.645Z,1000.6
2018-07-29T03:59:26.048Z,1000.7
2018-07-29T04:00:27.450Z,1000.7
2018-07-29T04:01:28.859Z,1000.7
2018-07-29T04:02:30.255Z,1000.6
2018-07-29T04:03:31.680Z,1000.6
2018-07-29T04:04:33.077Z,1000.5
2018-07-29T04:05:34.474Z,1000.4
2018-07-29T04:06:35.878Z,1000.4
2018-07-29T04:07:37.275Z,1000.3
2018-07-29T04:08:38.676Z,1000.3
2018-07-29T04:09:40.068Z,1000.3
2018-07-29T04:10:41.464Z,1000.3
2018-07-29T04:11:42.860Z,1000.2
2018-07-29T04:12:44.272Z,1000.2
2018-07-29T04:13:45.692Z,1000.1
2018-07-29T04:14:47.095Z,1000.1
2018-07-29T04:15:48.495Z,1000.2
2018-07-29T04:16:49.896Z,1000.2
2018-07-29T04:17:51.287Z,1000.3
2018-07-29T04:18:52.687Z,1000.3
2018-07-29T04:19:54.094Z,1000.2
2018-07-29T04:20:55.489Z,1000.1
2018-07-29T04:21:56.889Z,1000.1
2018-07-29T04:22:58.286Z,1000.1
2018-07-29T04:23:59.682Z,1000.1
2018-07-29T04:25:01.080Z,1000.2
2018-07-29T04:26:02.527Z,1000.2
2018-07-29T04:27:04.024Z,1000.3
2018-07-29T04:28:05.394Z,1000.5
2018-07-29T04:29:06.864Z,1000.5
2018-07-29T04:30:08.351Z,1000.6
2018-07-29T04:31:09.810Z,1000.5
2018-07-29T04:32:11.207Z,1000.5
2018-07-29T04:33:12.616Z,1000.5
2018-07-29T04:34:14.241Z,1000.5
2018-07-29T04:35:15.649Z,1000.6
2018-07-29T04:36:17.043Z,1000.6
2018-07-29T04:37:18.451Z,1000.6
2018-07-29T04:38:19.851Z,1000.7
2018-07-29T04:39:21.250Z,1000.8
2018-07-29T04:40:22.649Z,1000.7
2018-07-29T04:41:24.046Z,1000.7
2018-07-29T04:42:25.494Z,1000.8
2018-07-29T04:43:26.942Z,1000.8
2018-07-29T04:44:28.374Z,1000.8
2018-07-29T04:45:29.997Z,1000.7
2018-07-29T04:46:31.372Z,1000.7
2018-07-29T04:47:32.767Z,1000.6
2018-07-29T04:48:34.198Z,1000.6
2018-07-29T04:49:35.695Z,1000.6
2018-07-29T04:50:37.104Z,1000.7
2018-07-29T04:51:38.551Z,1000.7
2018-07-29T04:52:39.985Z,1000.7
2018-07-29T04:53:41.381Z,1000.6
2018-07-29T04:54:42.999Z,1000.6
2018-07-29T04:55:44.398Z,1000.6
2018-07-29T04:56:45.843Z,1000.6
2018-07-29T04:57:47.285Z,1000.6
2018-07-29T04:58:48.684Z,1000.5
2018-07-29T04:59:50.175Z,1000.6
2018-07-29T05:00:51.599Z,1000.5
2018-07-29T05:01:53.007Z,1000.5
2018-07-29T05:02:54.416Z,1000.5
2018-07-29T05:03:55.927Z,1000.5
2018-07-29T05:04:57.322Z,1000.5
2018-07-29T05:05:58.725Z,1000.6
2018-07-29T05:07:00.131Z,1000.6
2018-07-29T05:08:01.560Z,1000.5
2018-07-29T05:09:03.128Z,1000.5
2018-07-29T05:10:04.786Z,1000.5
2018-07-29T05:11:06.269Z,1000.5
2018-07-29T05:12:07.720Z,1000.5
2018-07-29T05:13:09.186Z,1000.5
2018-07-29T05:14:10.585Z,1000.5
2018-07-29T05:15:11.998Z,1000.5
2018-07-29T05:16:13.428Z,1000.4
2018-07-29T05:17:14.866Z,1000.5
2018-07-29T05:18:16.276Z,1000.5
2018-07-29T05:19:17.667Z,1000.4
2018-07-29T05:20:19.078Z,1000.4
2018-07-29T05:21:20.474Z,1000.4
2018-07-29T05:22:21.918Z,1000.5
2018-07-29T05:23:23.318Z,1000.5
2018-07-29T05:24:24.872Z,1000.5
2018-07-29T05:25:26.309Z,1000.5
2018-07-29T05:26:27.776Z,1000.6
2018-07-29T05:27:29.196Z,1000.5
2018-07-29T05:28:30.641Z,1000.5
2018-07-29T05:29:32.513Z,1000.4
2018-07-29T05:30:33.918Z,1000.5
2018-07-29T05:31:35.338Z,1000.5
2018-07-29T05:32:36.805Z,1000.6
2018-07-29T05:33:38.213Z,1000.6
2018-07-29T05:34:39.795Z,1000.6
2018-07-29T05:35:41.216Z,1000.6
2018-07-29T05:36:42.971Z,1000.6
2018-07-29T05:37:44.373Z,1000.6
2018-07-29T05:38:45.827Z,1000.6
2018-07-29T05:39:47.830Z,1000.6
2018-07-29T05:40:49.242Z,1000.5
2018-07-29T05:41:50.677Z,1000.5
2018-07-29T05:42:52.108Z,1000.6
2018-07-29T05:43:54.651Z,1000.5
2018-07-29T05:44:56.079Z,1000.6
2018-07-29T05:45:57.539Z,1000.6
2018-07-29T05:46:58.959Z,1000.5
2018-07-29T05:48:00.395Z,1000.5
2018-07-29T05:49:01.851Z,1000.6
2018-07-29T05:50:03.294Z,1000.5
2018-07-29T05:51:04.705Z,1000.5
2018-07-29T05:52:06.121Z,1000.5
2018-07-29T05:53:07.524Z,1000.5
2018-07-29T05:54:08.933Z,1000.5
2018-07-29T05:55:10.329Z,1000.5
2018-07-29T05:56:11.752Z,1000.5
2018-07-29T05:57:13.149Z,1000.5
2018-07-29T05:58:14.545Z,1000.6
2018-07-29T05:59:16.001Z,1000.6
2018-07-29T06:00:17.410Z,1000.6
2018-07-29T06:01:18.829Z,1000.6
2018-07-29T06:02:20.267Z,1000.6
2018-07-29T06:03:21.708Z,1000.6
2018-07-29T06:04:23.142Z,1000.6
2018-07-29T06:05:24.572Z,1000.6
2018-07-29T06:06:25.977Z,1000.6
2018-07-29T06:07:27.449Z,1000.6
2018-07-29T06:08:28.882Z,1000.5
2018-07-29T06:09:30.289Z,1000.5
2018-07-29T06:10:31.710Z,1000.5
2018-07-29T06:11:33.171Z,1000.5
2018-07-29T06:12:34.908Z,1000.5
2018-07-29T06:13:36.656Z,1000.5
2018-07-29T06:14:38.070Z,1000.5
2018-07-29T06:15:39.492Z,1000.5
2018-07-29T06:16:40.939Z,1000.5
2018-07-29T06:17:42.328Z,1000.5
2018-07-29T06:18:43.774Z,1000.5
2018-07-29T06:19:45.178Z,1000.5
2018-07-29T06:20:46.575Z,1000.5
2018-07-29T06:21:48.054Z,1000.5
2018-07-29T06:22:49.489Z,1000.5
2018-07-29T06:23:50.890Z,1000.5
2018-07-29T06:24:52.492Z,1000.5
2018-07-29T06:25:53.928Z,1000.5
2018-07-29T06:26:55.343Z,1000.6
2018-07-29T06:27:56.815Z,1000.6
2018-07-29T06:28:58.254Z,1000.6
2018-07-29T06:29:59.912Z,1000.7
2018-07-29T06:31:01.447Z,1000.6
2018-07-29T06:32:02.955Z,1000.6
2018-07-29T06:33:04.371Z,1000.7
2018-07-29T06:34:05.773Z,1000.7
2018-07-29T06:35:07.192Z,1000.7
2018-07-29T06:36:08.592Z,1000.7
2018-07-29T06:37:09.991Z,1000.7
2018-07-29T06:38:11.388Z,1000.7
2018-07-29T06:39:13.545Z,1000.7
2018-07-29T06:40:14.946Z,1000.7
2018-07-29T06:41:16.408Z,1000.7
2018-07-29T06:42:17.808Z,1000.6
2018-07-29T06:43:19.207Z,1000.7
2018-07-29T06:44:20.608Z,1000.6
2018-07-29T06:45:22.449Z,1000.7
2018-07-29T06:46:23.949Z,1000.6
2018-07-29T06:47:25.596Z,1000.6
2018-07-29T06:48:27.407Z,1000.6
2018-07-29T06:49:28.806Z,1000.7
2018-07-29T06:50:30.214Z,1000.6
2018-07-29T06:51:31.617Z,1000.6
2018-07-29T06:52:33.019Z,1000.6
2018-07-29T06:53:34.639Z,1000.6
2018-07-29T06:54:36.044Z,1000.5
2018-07-29T06:55:37.451Z,1000.5
2018-07-29T06:56:38.846Z,1000.5
2018-07-29T06:57:40.354Z,1000.6
2018-07-29T06:58:41.769Z,1000.6
2018-07-29T06:59:43.165Z,1000.5
2018-07-29T07:00:44.568Z,1000.5
2018-07-29T07:01:45.966Z,1000.5
2018-07-29T07:02:47.359Z,1000.5
2018-07-29T07:03:48.778Z,1000.4
2018-07-29T07:04:50.181Z,1000.4
2018-07-29T07:05:51.582Z,1000.5
2018-07-29T07:06:52.983Z,1000.5
2018-07-29T07:07:54.382Z,1000.5
2018-07-29T07:08:55.816Z,1000.5
2018-07-29T07:09:57.270Z,1000.5
2018-07-29T07:10:58.642Z,1000.5
2018-07-29T07:12:00.060Z,1000.5
2018-07-29T07:13:01.469Z,1000.6
2018-07-29T07:14:03.004Z,1000.6
2018-07-29T07:15:04.410Z,1000.6
2018-07-29T07:16:05.829Z,1000.6
2018-07-29T07:17:07.213Z,1000.5
2018-07-29T07:18:08.765Z,1000.6
2018-07-29T07:19:10.028Z,1000.6
2018-07-29T07:20:11.440Z,1000.6
2018-07-29T07:21:13.005Z,1000.6
2018-07-29T07:22:15.983Z,1000.6
2018-07-29T07:23:17.333Z,1000.6
2018-07-29T07:24:18.734Z,1000.6
2018-07-29T07:25:20.127Z,1000.6
2018-07-29T07:26:21.526Z,1000.6
2018-07-29T07:27:22.926Z,1000.6
2018-07-29T07:28:24.326Z,1000.6
2018-07-29T07:29:25.735Z,1000.6
2018-07-29T07:30:27.203Z,1000.7
2018-07-29T07:31:28.757Z,1000.7
2018-07-29T07:32:30.272Z,1000.7
2018-07-29T07:33:31.782Z,1000.7
2018-07-29T07:34:33.324Z,1000.7
2018-07-29T07:35:34.785Z,1000.7
2018-07-29T07:36:36.207Z,1000.7
2018-07-29T07:37:37.603Z,1000.7
2018-07-29T07:38:39.332Z,1000.7
2018-07-29T07:39:41.341Z,1000.7
2018-07-29T07:40:43.370Z,1000.8
2018-07-29T07:41:44.980Z,1000.8
2018-07-29T07:42:46.810Z,1000.8
2018-07-29T07:43:48.321Z,1000.8
2018-07-29T07:44:49.717Z,1000.8
2018-07-29T07:45:51.285Z,1000.8
2018-07-29T07:46:52.850Z,1000.8
2018-07-29T07:47:54.303Z,1000.8
2018-07-29T07:48:55.774Z,1000.8
2018-07-29T07:49:57.204Z,1000.8
2018-07-29T07:50:58.786Z,1000.8
2018-07-29T07:52:00.444Z,1000.8
2018-07-29T07:53:01.875Z,1000.8
2018-07-29T07:54:03.431Z,1000.8
2018-07-29T07:55:04.983Z,1000.8
2018-07-29T07:56:06.622Z,1000.7
2018-07-29T07:57:08.020Z,1000.8
2018-07-29T07:58:09.433Z,1000.8
2018-07-29T07:59:10.828Z,1000.8
2018-07-29T08:00:12.223Z,1000.8
2018-07-29T08:01:13.621Z,1000.7
2018-07-29T08:02:15.084Z,1000.8
2018-07-29T08:03:16.453Z,1000.8
2018-07-29T08:04:17.851Z,1000.8
2018-07-29T08:05:19.261Z,1000.8
2018-07-29T08:06:20.750Z,1000.8
2018-07-29T08:07:22.207Z,1000.7
2018-07-29T08:08:23.608Z,1000.8
2018-07-29T08:09:25.068Z,1000.8
2018-07-29T08:10:27.234Z,1000.8
2018-07-29T08:11:29.304Z,1000.7
2018-07-29T08:12:30.726Z,1000.7
2018-07-29T08:13:32.178Z,1000.7
2018-07-29T08:14:34.056Z,1000.7
2018-07-29T08:15:35.461Z,1000.7
2018-07-29T08:16:36.867Z,1000.7
2018-07-29T08:17:38.291Z,1000.7
2018-07-29T08:18:39.696Z,1000.7
2018-07-29T08:19:41.099Z,1000.8
2018-07-29T08:20:42.500Z,1000.8
2018-07-29T08:21:43.903Z,1000.8
2018-07-29T08:22:45.854Z,1000.8
2018-07-29T08:23:48.032Z,1000.8
2018-07-29T08:24:49.763Z,1000.7
2018-07-29T08:25:51.887Z,1000.8
2018-07-29T08:26:53.619Z,1000.8
2018-07-29T08:27:55.686Z,1000.8
2018-07-29T08:28:57.772Z,1000.8
2018-07-29T08:29:59.890Z,1000.8
2018-07-29T08:31:02.136Z,1000.8
2018-07-29T08:32:04.136Z,1000.8
2018-07-29T08:33:06.048Z,1000.8
2018-07-29T08:34:08.211Z,1000.9
2018-07-29T08:35:09.613Z,1000.8
2018-07-29T08:36:11.015Z,1000.8
2018-07-29T08:37:12.417Z,1000.8
2018-07-29T08:38:13.870Z,1000.8
2018-07-29T08:39:15.351Z,1000.8
2018-07-29T08:40:16.755Z,1000.8
2018-07-29T08:41:18.183Z,1000.8
2018-07-29T08:42:19.586Z,1000.8
2018-07-29T08:43:20.988Z,1000.8
2018-07-29T08:44:22.393Z,1000.7
2018-07-29T08:45:23.848Z,1000.7
2018-07-29T08:46:25.198Z,1000.7
2018-07-29T08:47:26.598Z,1000.7
2018-07-29T08:48:28.003Z,1000.8
2018-07-29T08:49:29.405Z,1000.7
2018-07-29T08:50:30.820Z,1000.8
2018-07-29T08:51:32.222Z,1000.8
2018-07-29T08:52:33.617Z,1000.7
2018-07-29T08:53:35.025Z,1000.7
2018-07-29T08:54:36.431Z,1000.7
2018-07-29T08:55:37.829Z,1000.7
2018-07-29T08:56:39.234Z,1000.7
2018-07-29T08:57:40.633Z,1000.7
2018-07-29T08:58:42.042Z,1000.7
2018-07-29T08:59:43.443Z,1000.7
2018-07-29T09:00:44.842Z,1000.7
2018-07-29T09:01:46.245Z,1000.7
2018-07-29T09:02:48.526Z,1000.7
2018-07-29T09:03:50.607Z,1000.6
2018-07-29T09:04:52.994Z,1000.6
2018-07-29T09:05:55.133Z,1000.7
2018-07-29T09:06:57.113Z,1000.6
2018-07-29T09:07:59.186Z,1000.6
2018-07-29T09:09:00.720Z,1000.6
2018-07-29T09:10:02.577Z,1000.6
2018-07-29T09:11:04.069Z,1000.7
2018-07-29T09:12:06.019Z,1000.7
2018-07-29T09:13:07.604Z,1000.7
2018-07-29T09:14:09.876Z,1000.7
2018-07-29T09:15:11.838Z,1000.6
2018-07-29T09:16:13.956Z,1000.6
2018-07-29T09:17:15.787Z,1000.6
2018-07-29T09:18:17.974Z,1000.7
2018-07-29T09:19:19.947Z,1000.6
2018-07-29T09:20:21.942Z,1000.6
2018-07-29T09:21:23.780Z,1000.6
2018-07-29T09:22:25.848Z,1000.6
2018-07-29T09:23:27.872Z,1000.6
2018-07-29T09:24:30.986Z,1000.6
2018-07-29T09:25:32.051Z,1000.6
2018-07-29T09:26:35.121Z,1000.6
2018-07-29T09:27:37.382Z,1000.5
2018-07-29T09:28:39.569Z,1000.5
2018-07-29T09:29:41.786Z,1000.5
2018-07-29T09:30:44.018Z,1000.5
2018-07-29T09:31:45.295Z,1000.5
2018-07-29T09:32:46.745Z,1000.5
2018-07-29T09:33:48.139Z,1000.6
2018-07-29T09:34:49.607Z,1000.5
2018-07-29T09:35:51.072Z,1000.5
2018-07-29T09:36:52.477Z,1000.5
2018-07-29T09:37:53.884Z,1000.5
2018-07-29T09:38:55.293Z,1000.5
2018-07-29T09:40:01.249Z,1000.5
2018-07-29T09:41:02.594Z,1000.5
2018-07-29T09:42:04.112Z,1000.5
2018-07-29T09:43:05.868Z,1000.5
2018-07-29T09:44:07.711Z,1000.5
2018-07-29T09:45:09.317Z,1000.5
2018-07-29T09:46:10.752Z,1000.5
2018-07-29T09:47:12.151Z,1000.5
2018-07-29T09:48:13.751Z,1000.5
2018-07-29T09:49:15.520Z,1000.4
2018-07-29T09:50:17.133Z,1000.5
2018-07-29T09:51:18.542Z,1000.4
2018-07-29T09:52:20.037Z,1000.4
2018-07-29T09:53:21.653Z,1000.5
2018-07-29T09:54:23.697Z,1000.4
2018-07-29T09:55:26.110Z,1000.5
2018-07-29T09:56:27.994Z,1000.4
2018-07-29T09:57:29.556Z,1000.4
2018-07-29T09:58:31.111Z,1000.4
2018-07-29T09:59:32.520Z,1000.4
2018-07-29T10:00:33.931Z,1000.4
2018-07-29T10:01:35.336Z,1000.4
2018-07-29T10:02:36.732Z,1000.4
2018-07-29T10:03:38.193Z,1000.5
2018-07-29T10:04:39.598Z,1000.5
2018-07-29T10:05:40.999Z,1000.4
2018-07-29T10:06:42.411Z,1000.5
2018-07-29T10:07:43.816Z,1000.4
2018-07-29T10:08:45.217Z,1000.5
2018-07-29T10:09:46.619Z,1000.4
2018-07-29T10:10:48.320Z,1000.4
2018-07-29T10:11:49.656Z,1000.4
2018-07-29T10:12:51.061Z,1000.4
2018-07-29T10:13:52.460Z,1000.3
2018-07-29T10:14:53.869Z,1000.3
2018-07-29T10:15:55.268Z,1000.3
2018-07-29T10:16:56.669Z,1000.3
2018-07-29T10:17:58.065Z,1000.3
2018-07-29T10:18:59.466Z,1000.3
2018-07-29T10:20:00.866Z,1000.3
2018-07-29T10:21:02.295Z,1000.3
2018-07-29T10:22:03.670Z,1000.3
2018-07-29T10:23:05.086Z,1000.4
2018-07-29T10:24:06.487Z,1000.4
2018-07-29T10:25:07.949Z,1000.4
2018-07-29T10:26:09.291Z,1000.4
2018-07-29T10:27:10.709Z,1000.4
2018-07-29T10:28:12.112Z,1000.4
2018-07-29T10:29:13.514Z,1000.4
2018-07-29T10:30:14.921Z,1000.4
2018-07-29T10:31:16.319Z,1000.3
2018-07-29T10:32:17.719Z,1000.4
2018-07-29T10:33:19.125Z,1000.3
2018-07-29T10:34:20.537Z,1000.3
2018-07-29T10:35:21.943Z,1000.3
2018-07-29T10:36:23.350Z,1000.3
2018-07-29T10:37:24.751Z,1000.3
2018-07-29T10:38:26.149Z,1000.3
2018-07-29T10:39:27.546Z,1000.3
2018-07-29T10:40:28.945Z,1000.3
2018-07-29T10:41:30.351Z,1000.3
2018-07-29T10:42:31.758Z,1000.3
2018-07-29T10:43:33.160Z,1000.2
2018-07-29T10:44:34.634Z,1000.2
2018-07-29T10:45:36.031Z,1000.3
2018-07-29T10:46:37.433Z,1000.3
2018-07-29T10:47:38.832Z,1000.2
2018-07-29T10:48:40.237Z,1000.3
2018-07-29T10:49:41.641Z,1000.2
2018-07-29T10:50:43.043Z,1000.2
2018-07-29T10:51:44.445Z,1000.2
2018-07-29T10:52:45.852Z,1000.3
2018-07-29T10:53:47.251Z,1000.2
2018-07-29T10:54:48.653Z,1000.2
2018-07-29T10:55:50.063Z,1000.2
2018-07-29T10:56:51.465Z,1000.2
2018-07-29T10:57:52.868Z,1000.2
2018-07-29T10:58:54.270Z,1000.2
2018-07-29T10:59:55.726Z,1000.3
2018-07-29T11:00:57.072Z,1000.2
2018-07-29T11:01:58.472Z,1000.2
2018-07-29T11:02:59.871Z,1000.2
2018-07-29T11:04:01.281Z,1000.3
2018-07-29T11:05:02.729Z,1000.2
2018-07-29T11:06:04.084Z,1000.2
2018-07-29T11:07:05.484Z,1000.2
2018-07-29T11:08:06.882Z,1000.2
2018-07-29T11:09:08.288Z,1000.2
2018-07-29T11:10:09.692Z,1000.2
2018-07-29T11:11:11.096Z,1000.2
2018-07-29T11:12:12.497Z,1000.2
2018-07-29T11:13:13.900Z,1000.2
2018-07-29T11:14:15.293Z,1000.2
2018-07-29T11:15:16.707Z,1000.2
2018-07-29T11:16:18.108Z,1000.2
2018-07-29T11:17:19.512Z,1000.1
2018-07-29T11:18:20.910Z,1000.1
2018-07-29T11:19:22.318Z,1000.1
2018-07-29T11:20:23.719Z,1000.1
2018-07-29T11:21:25.133Z,1000.0
2018-07-29T11:22:26.546Z,1000.1
2018-07-29T11:23:27.943Z,1000.1
2018-07-29T11:24:29.344Z,1000.1
2018-07-29T11:25:30.767Z,1000.0
2018-07-29T11:26:32.192Z,1000.1
2018-07-29T11:27:33.595Z,1000.1
2018-07-29T11:28:35.012Z,1000.1
2018-07-29T11:29:36.407Z,1000.1
2018-07-29T11:30:37.831Z,1000.0
2018-07-29T11:31:39.238Z,1000.0
2018-07-29T11:32:40.648Z,1000.1
2018-07-29T11:33:42.051Z,1000.1
2018-07-29T11:34:43.461Z,1000.1
2018-07-29T11:35:44.865Z,1000.1
2018-07-29T11:36:46.264Z,1000.1
2018-07-29T11:37:47.670Z,1000.1
2018-07-29T11:38:49.075Z,1000.1
2018-07-29T11:39:50.476Z,1000.1
2018-07-29T11:40:51.883Z,1000.0
2018-07-29T11:41:53.286Z,1000.0
2018-07-29T11:42:54.689Z,1000.0
2018-07-29T11:43:56.092Z,1000.0
2018-07-29T11:44:57.505Z,1000.0
2018-07-29T11:45:58.912Z,1000.0
2018-07-29T11:47:00.317Z,999.9
2018-07-29T11:48:01.718Z,999.9
2018-07-29T11:49:03.121Z,999.9
2018-07-29T11:50:04.522Z,999.9
2018-07-29T11:51:05.928Z,1000.0
2018-07-29T11:52:07.334Z,1000.0
2018-07-29T11:53:08.761Z,1000.0
2018-07-29T11:54:10.167Z,1000.0
2018-07-29T11:55:11.573Z,1000.0
2018-07-29T11:56:12.975Z,1000.0
2018-07-29T11:57:14.383Z,1000.0
2018-07-29T11:58:15.788Z,1000.0
2018-07-29T11:59:17.193Z,1000.0
2018-07-29T12:00:18.599Z,1000.0
2018-07-29T12:01:19.998Z,1000.0
2018-07-29T12:02:21.400Z,1000.0
2018-07-29T12:03:22.803Z,1000.1
2018-07-29T12:04:24.208Z,1000.0
2018-07-29T12:05:25.610Z,1000.0
2018-07-29T12:06:27.051Z,1000.0
2018-07-29T12:07:28.458Z,1000.0
2018-07-29T12:08:29.863Z,1000.0
2018-07-29T12:09:31.275Z,1000.0
2018-07-29T12:10:32.678Z,999.9
2018-07-29T12:11:34.082Z,999.9
2018-07-29T12:12:35.480Z,999.9
2018-07-29T12:13:36.887Z,1000.0
2018-07-29T12:14:38.289Z,999.9
2018-07-29T12:15:39.695Z,999.9
2018-07-29T12:16:41.092Z,999.9
2018-07-29T12:17:42.504Z,999.9
2018-07-29T12:18:43.919Z,999.8
2018-07-29T12:19:45.316Z,999.8
2018-07-29T12:20:46.714Z,999.8
2018-07-29T12:21:48.122Z,999.9
2018-07-29T12:22:49.517Z,999.8
2018-07-29T12:23:50.920Z,999.7
2018-07-29T12:24:52.320Z,999.7
2018-07-29T12:25:53.727Z,999.7
2018-07-29T12:26:55.132Z,999.8
2018-07-29T12:27:56.579Z,999.7
2018-07-29T12:28:57.943Z,999.7
2018-07-29T12:29:59.359Z,999.7
2018-07-29T12:31:00.769Z,999.8
2018-07-29T12:32:02.163Z,999.7
2018-07-29T12:33:03.565Z,999.7
2018-07-29T12:34:04.977Z,999.7
2018-07-29T12:35:06.377Z,999.7
2018-07-29T12:36:07.784Z,999.7
2018-07-29T12:37:09.191Z,999.6
2018-07-29T12:38:10.597Z,999.7
2018-07-29T12:39:11.997Z,999.7
2018-07-29T12:40:13.395Z,999.7
2018-07-29T12:41:14.796Z,999.6
2018-07-29T12:42:16.199Z,999.6
2018-07-29T12:43:17.627Z,999.7
2018-07-29T12:44:18.996Z,999.6
2018-07-29T12:45:20.398Z,999.6
2018-07-29T12:46:21.796Z,999.6
2018-07-29T12:47:23.284Z,999.6
2018-07-29T12:48:24.689Z,999.5